Time;durP1;ratioP1;P1;durP2;ratioP2;P2;SDS_P1;SDS_P2;PMS_P1;PMS_P2;Temp;Humidity;BMP_temperature;BMP_pressure;BME280_temperature;BME280_humidity;BME280_pressure;Samples;Min_cycle;Max_cycle;Signal;HPM_P1;HPM_P2
2021/12/20 00:03:09;;;;;;;9.47;7.03;;;;;;;8.04;60.86;98538.38;8273823;28;20579;-76
2021/12/20 00:07:12;;;;;;;8.10;7.30;;;;;;;7.91;61.01;98542.13;8263043;28;20337;-76
2021/12/20 00:11:15;;;;;;;8.70;7.70;;;;;;;7.97;61.16;98535.09;8249396;28;20238;-76
2021/12/20 00:15:18;;;;;;;8.73;7.83;;;;;;;7.99;60.79;98537.63;8250261;28;20238;-76
2021/12/20 00:19:25;;;;;;;8.50;6.87;;;;;;;8.18;60.39;98532.84;8250352;28;20234;-76
2021/12/20 00:23:28;;;;;;;9.70;7.40;;;;;;;8.14;60.35;98532.09;8249669;28;20238;-76
2021/12/20 00:27:31;;;;;;;9.63;7.60;;;;;;;8.22;59.67;98521.56;8250010;28;20261;-75
2021/12/20 00:31:34;;;;;;;8.53;7.63;;;;;;;8.20;60.36;98534.50;8250658;28;20412;-76
2021/12/20 00:35:38;;;;;;;8.10;7.30;;;;;;;8.23;59.72;98533.59;8256772;28;20230;-76
2021/12/20 00:44:01;;;;;;;7.50;6.67;;;;;;;8.18;60.01;98527.69;8255840;28;20306;-76
2021/12/20 00:48:20;;;;;;;7.53;6.80;;;;;;;8.06;60.58;98534.03;8223111;28;20227;-76
2021/12/20 00:52:25;;;;;;;8.33;7.13;;;;;;;8.25;59.96;98529.25;8223799;28;20299;-76
2021/12/20 00:56:28;;;;;;;8.60;6.73;;;;;;;8.28;60.03;98534.34;8223769;28;20234;-76
2021/12/20 01:00:34;;;;;;;8.60;7.27;;;;;;;8.12;60.74;98533.03;8223328;28;20243;-76
2021/12/20 01:04:37;;;;;;;8.90;7.03;;;;;;;8.18;60.09;98533.69;8222834;28;20270;-76
2021/12/20 01:08:42;;;;;;;7.67;6.63;;;;;;;8.22;60.22;98529.31;8223019;28;20231;-76
2021/12/20 01:12:48;;;;;;;7.90;6.63;;;;;;;7.97;61.01;98535.09;8223103;28;20238;-76
2021/12/20 01:16:51;;;;;;;7.83;6.47;;;;;;;8.22;60.08;98535.34;8223218;28;20556;-76
2021/12/20 01:20:54;;;;;;;8.07;6.63;;;;;;;8.19;60.32;98545.72;8222860;28;20239;-76
2021/12/20 01:24:59;;;;;;;7.60;6.67;;;;;;;8.31;60.40;98544.56;8223002;28;20409;-76
2021/12/20 01:29:02;;;;;;;7.63;6.77;;;;;;;7.90;60.57;98541.31;8222971;28;20242;-76
2021/12/20 01:33:08;;;;;;;7.67;6.57;;;;;;;8.22;60.44;98542.22;8222752;28;20254;-76
2021/12/20 01:37:13;;;;;;;9.43;7.10;;;;;;;8.36;59.43;98540.13;8222394;28;20241;-76
2021/12/20 01:41:17;;;;;;;7.43;6.67;;;;;;;8.20;60.44;98541.41;8222123;28;20274;-76
2021/12/20 01:45:23;;;;;;;7.33;6.57;;;;;;;8.07;60.22;98547.75;8232884;28;20236;-76
2021/12/20 01:49:26;;;;;;;8.03;6.30;;;;;;;8.30;60.24;98557.50;8256003;28;20202;-76
2021/12/20 01:53:29;;;;;;;7.90;6.50;;;;;;;8.43;59.70;98548.56;8254171;28;20241;-76
2021/12/20 01:57:33;;;;;;;7.83;7.00;;;;;;;8.16;60.36;98552.69;8254203;28;20535;-76
2021/12/20 02:01:37;;;;;;;10.37;7.00;;;;;;;8.14;59.51;98562.22;8253674;28;20438;-76
2021/12/20 02:05:49;;;;;;;8.03;6.53;;;;;;;8.00;60.23;98558.22;8253475;28;20245;-76
2021/12/20 02:09:52;;;;;;;6.70;6.00;;;;;;;8.21;60.20;98550.84;8253936;28;20241;-76
2021/12/20 02:13:57;;;;;;;8.20;6.87;;;;;;;8.15;60.25;98554.44;8253301;28;20242;-76
2021/12/20 02:18:00;;;;;;;7.87;6.90;;;;;;;8.12;60.24;98558.81;8252701;28;20337;-76
2021/12/20 02:22:05;;;;;;;7.97;6.27;;;;;;;8.02;60.47;98560.78;8252757;28;20241;-75
2021/12/20 02:26:11;;;;;;;7.83;6.33;;;;;;;7.90;61.03;98556.78;8252898;28;20425;-76
2021/12/20 02:30:37;;;;;;;6.10;5.50;;;;;;;7.85;61.10;98550.88;8252405;28;20540;-76
2021/12/20 02:38:59;;;;;;;8.07;6.17;;;;;;;8.18;60.14;98546.59;8252519;28;20280;-76
2021/12/20 02:43:02;;;;;;;7.10;5.80;;;;;;;8.20;59.70;98549.16;8252426;28;20238;-76
2021/12/20 02:47:14;;;;;;;7.13;6.03;;;;;;;8.11;60.13;98536.47;8252023;28;20422;-76
2021/12/20 02:51:16;;;;;;;7.40;5.90;;;;;;;8.19;59.93;98537.16;8251401;28;20241;-76
2021/12/20 02:55:21;;;;;;;7.33;5.63;;;;;;;8.17;60.06;98546.66;8251533;28;20465;-75
2021/12/20 02:59:24;;;;;;;6.43;5.23;;;;;;;8.09;60.16;98539.13;8251997;28;20234;-76
2021/12/20 03:03:27;;;;;;;8.37;5.70;;;;;;;8.10;59.96;98548.53;8251548;28;20441;-76
2021/12/20 03:07:38;;;;;;;7.00;5.37;;;;;;;8.17;59.89;98552.66;8251623;28;20262;-76
2021/12/20 03:11:44;;;;;;;7.57;5.30;;;;;;;8.18;60.06;98550.91;8251525;28;20238;-77
2021/12/20 03:15:47;;;;;;;8.33;5.63;;;;;;;8.22;59.44;98555.09;8251480;28;20410;-77
2021/12/20 03:19:50;;;;;;;6.40;5.07;;;;;;;8.35;59.25;98558.22;8250929;28;20230;-77
2021/12/20 03:23:53;;;;;;;5.30;4.80;;;;;;;8.22;59.40;98548.25;8250816;28;20242;-77
2021/12/20 03:27:57;;;;;;;6.57;5.57;;;;;;;8.08;59.50;98560.63;8251293;28;20537;-77
2021/12/20 03:32:00;;;;;;;6.83;5.20;;;;;;;8.22;59.24;98555.97;8251091;28;20242;-77
2021/12/20 03:36:04;;;;;;;8.50;5.27;;;;;;;8.28;59.31;98561.84;8250757;28;20234;-77
2021/12/20 03:40:09;;;;;;;7.97;5.67;;;;;;;8.10;59.97;98558.84;8250857;28;20241;-77
2021/12/20 03:44:14;;;;;;;6.10;5.27;;;;;;;8.19;59.69;98573.25;8241991;28;20537;-77
2021/12/20 03:48:16;;;;;;;7.77;5.50;;;;;;;8.20;59.75;98568.03;8250279;28;20234;-76
2021/12/20 03:52:19;;;;;;;6.53;5.03;;;;;;;8.22;59.67;98570.59;8250477;28;20249;-76
2021/12/20 03:56:22;;;;;;;7.87;5.73;;;;;;;8.34;58.96;98575.47;8250389;28;20254;-77
2021/12/20 04:00:27;;;;;;;5.70;5.10;;;;;;;8.40;58.67;98587.34;8250343;28;20233;-77
2021/12/20 04:04:30;;;;;;;6.37;5.20;;;;;;;8.37;59.10;98590.84;8250090;28;20249;-76
2021/12/20 04:08:33;;;;;;;6.17;5.03;;;;;;;8.39;58.82;98596.81;8249121;28;20234;-77
2021/12/20 04:12:36;;;;;;;8.70;5.83;;;;;;;8.23;59.27;98588.63;8250146;28;21348;-76
2021/12/20 04:16:41;;;;;;;6.80;5.33;;;;;;;8.22;59.80;98588.66;8250243;28;20249;-76
2021/12/20 04:20:43;;;;;;;7.37;5.40;;;;;;;8.33;58.99;98589.22;8249953;28;20237;-76
2021/12/20 04:24:47;;;;;;;6.97;5.20;;;;;;;8.36;58.44;98591.75;8249613;28;20230;-77
2021/12/20 04:28:50;;;;;;;6.83;5.90;;;;;;;8.33;58.65;98585.81;8249901;28;20230;-77
2021/12/20 04:32:54;;;;;;;7.57;5.20;;;;;;;8.19;58.53;98576.69;8249999;28;20238;-77
2021/12/20 04:36:58;;;;;;;9.03;5.63;;;;;;;8.28;58.23;98578.19;8249738;28;20233;-76
2021/12/20 04:41:01;;;;;;;6.43;5.30;;;;;;;8.02;58.72;98579.69;8249573;28;20238;-77
2021/12/20 04:45:04;;;;;;;8.20;5.43;;;;;;;8.05;58.09;98594.22;8251992;28;20229;-78
2021/12/20 04:49:09;;;;;;;8.07;5.60;;;;;;;8.04;58.21;98600.28;8282017;28;20233;-77
2021/12/20 04:53:12;;;;;;;7.23;5.27;;;;;;;8.02;57.82;98602.06;8281286;28;20241;-76
2021/12/20 04:57:15;;;;;;;7.63;4.90;;;;;;;7.98;57.98;98603.84;8262190;28;20559;-77
2021/12/20 05:01:18;;;;;;;6.03;4.70;;;;;;;7.93;58.06;98597.09;8249063;28;20241;-76
2021/12/20 05:05:23;;;;;;;5.90;4.80;;;;;;;7.93;57.61;98597.94;8249588;28;20245;-76
2021/12/20 05:09:29;;;;;;;7.70;4.73;;;;;;;7.78;58.05;98596.56;8249356;28;20250;-76
2021/12/20 05:13:32;;;;;;;6.93;4.57;;;;;;;7.70;58.13;98603.63;8249078;28;20246;-76
2021/12/20 05:17:36;;;;;;;8.30;4.50;;;;;;;7.70;57.77;98608.78;8248961;28;20234;-77
2021/12/20 05:21:40;;;;;;;5.97;4.57;;;;;;;7.64;58.21;98609.78;8254670;28;20242;-76
2021/12/20 05:25:43;;;;;;;7.53;4.63;;;;;;;7.72;58.02;98621.66;8254491;28;20249;-77
2021/12/20 05:29:48;;;;;;;7.90;4.80;;;;;;;7.63;57.76;98605.53;8253783;28;20537;-77
2021/12/20 05:33:51;;;;;;;4.80;4.17;;;;;;;7.65;57.55;98623.50;8253902;28;20238;-77
2021/12/20 05:37:55;;;;;;;6.57;4.10;;;;;;;7.70;57.41;98623.41;8254165;28;20234;-77
2021/12/20 05:41:58;;;;;;;6.37;3.67;;;;;;;7.66;57.19;98624.38;8253982;28;20234;-76
2021/12/20 05:46:00;;;;;;;7.10;5.27;;;;;;;7.62;57.34;98629.59;8269298;28;20233;-76
2021/12/20 05:50:05;;;;;;;7.80;4.40;;;;;;;7.52;57.73;98627.22;8286360;28;20240;-76
2021/12/20 05:54:09;;;;;;;6.87;4.43;;;;;;;7.47;57.44;98650.53;8286048;28;20237;-76
2021/12/20 05:58:12;;;;;;;10.10;4.83;;;;;;;7.50;57.40;98663.38;8285635;28;20245;-75
2021/12/20 06:02:15;;;;;;;7.13;3.60;;;;;;;7.37;57.20;98655.03;8267977;28;20428;-77
2021/12/20 06:06:18;;;;;;;6.97;3.80;;;;;;;7.36;56.96;98660.22;8252450;28;20237;-76
2021/12/20 06:10:22;;;;;;;6.37;3.70;;;;;;;7.34;57.08;98674.88;8253716;28;20536;-76
2021/12/20 06:14:25;;;;;;;6.50;3.70;;;;;;;7.29;56.47;98679.25;8253549;28;20238;-77
2021/12/20 06:18:28;;;;;;;6.93;4.20;;;;;;;7.24;56.57;98676.78;8252286;28;20423;-76
2021/12/20 06:22:31;;;;;;;5.67;3.53;;;;;;;7.18;56.33;98676.91;8252175;28;20248;-76
2021/12/20 06:26:36;;;;;;;7.83;4.10;;;;;;;7.17;56.41;98677.75;8252325;28;20237;-77
2021/12/20 06:30:39;;;;;;;7.77;3.70;;;;;;;7.08;56.20;98685.66;8251385;28;20307;-77
2021/12/20 06:34:42;;;;;;;6.23;3.63;;;;;;;7.03;56.36;98690.91;8252009;28;20232;-77
2021/12/20 06:38:46;;;;;;;7.77;3.60;;;;;;;6.96;56.36;98694.47;8252283;28;20230;-77
2021/12/20 06:42:51;;;;;;;8.07;4.13;;;;;;;6.94;56.36;98697.06;8252210;28;20400;-77
2021/12/20 06:46:54;;;;;;;8.00;4.20;;;;;;;6.94;56.16;98709.09;8252461;28;20536;-77
2021/12/20 06:50:57;;;;;;;6.93;5.10;;;;;;;6.87;56.35;98710.91;8252208;28;20234;-77
2021/12/20 06:54:59;;;;;;;8.33;4.90;;;;;;;6.82;56.22;98705.88;8251997;28;20541;-77
2021/12/20 06:59:04;;;;;;;8.50;5.17;;;;;;;6.75;56.28;98706.00;8251900;28;20234;-77
2021/12/20 07:03:07;;;;;;;9.97;4.67;;;;;;;6.59;56.37;98702.84;8251696;28;20249;-77
2021/12/20 07:07:10;;;;;;;7.67;4.47;;;;;;;6.68;56.05;98715.53;8251234;28;20297;-77
2021/12/20 07:11:14;;;;;;;8.77;5.20;;;;;;;6.80;55.82;98709.34;8243425;28;20313;-77
2021/12/20 07:15:18;;;;;;;8.47;4.80;;;;;;;6.68;55.85;98723.25;8251181;28;20237;-76
2021/12/20 07:19:22;;;;;;;11.17;5.50;;;;;;;6.67;56.03;98715.59;8251305;28;20241;-76
2021/12/20 07:23:24;;;;;;;12.33;5.53;;;;;;;6.60;56.25;98715.66;8250904;28;20249;-77
2021/12/20 07:27:28;;;;;;;7.07;4.40;;;;;;;6.55;55.83;98709.75;8250911;28;20241;-77
2021/12/20 07:31:32;;;;;;;10.47;4.80;;;;;;;6.65;55.69;98713.88;8251190;28;20242;-77
2021/12/20 07:35:35;;;;;;;11.53;4.80;;;;;;;6.52;55.75;98714.09;8250836;28;20238;-77
2021/12/20 07:39:38;;;;;;;8.77;4.93;;;;;;;6.58;55.85;98727.69;8250490;28;20230;-77
2021/12/20 07:43:41;;;;;;;11.20;4.80;;;;;;;6.66;55.63;98725.00;8250569;28;20234;-77
2021/12/20 07:47:46;;;;;;;9.27;4.30;;;;;;;6.64;55.55;98737.91;8250470;28;20230;-77
2021/12/20 07:51:51;;;;;;;9.10;4.30;;;;;;;6.67;55.45;98734.44;8250351;28;20289;-77
2021/12/20 07:55:55;;;;;;;7.90;4.10;;;;;;;7.90;52.63;98737.31;8250264;28;20241;-77
2021/12/20 07:59:57;;;;;;;7.43;3.73;;;;;;;10.59;45.13;98731.94;8250598;28;20250;-77
2021/12/20 08:04:02;;;;;;;10.10;4.17;;;;;;;11.65;42.80;98737.81;8250059;28;20249;-77
2021/12/20 08:08:06;;;;;;;9.17;4.13;;;;;;;12.36;41.25;98735.22;8250149;28;20237;-76
2021/12/20 08:12:10;;;;;;;7.10;3.73;;;;;;;11.70;42.59;98747.13;8250060;28;20234;-76
2021/12/20 08:16:16;;;;;;;10.73;4.10;;;;;;;9.34;47.11;98752.81;8249759;28;20245;-76
2021/12/20 08:20:24;;;;;;;7.33;4.03;;;;;;;8.70;49.61;98744.97;8250095;28;20544;-77
2021/12/20 08:24:27;;;;;;;10.80;4.90;;;;;;;8.33;50.61;98745.81;8249147;28;20238;-77
2021/12/20 08:28:30;;;;;;;9.70;4.20;;;;;;;8.12;51.69;98760.06;8249684;28;20230;-77
2021/12/20 08:32:33;;;;;;;9.30;3.97;;;;;;;8.05;52.45;98768.78;8249868;28;20230;-77
2021/12/20 08:36:41;;;;;;;9.07;4.10;;;;;;;7.96;52.66;98762.97;8249529;28;20289;-77
2021/12/20 08:40:45;;;;;;;10.10;4.07;;;;;;;7.92;52.94;98763.03;8249257;28;20253;-77
2021/12/20 08:44:48;;;;;;;8.80;3.80;;;;;;;7.83;53.17;98770.09;8249313;28;20230;-76
2021/12/20 08:48:52;;;;;;;14.93;5.00;;;;;;;7.78;53.64;98768.50;8249473;28;20234;-77
2021/12/20 08:53:00;;;;;;;12.67;4.53;;;;;;;7.70;53.72;98773.78;8250038;28;20536;-77
2021/12/20 08:57:05;;;;;;;11.90;4.70;;;;;;;7.72;53.90;98779.78;8255564;28;20241;-77
2021/12/20 09:01:08;;;;;;;9.80;4.00;;;;;;;7.80;54.22;98783.03;8251929;28;20234;-77
2021/12/20 09:05:11;;;;;;;12.37;4.83;;;;;;;7.73;54.31;98778.91;8254576;28;20242;-77
2021/12/20 09:09:16;;;;;;;11.37;4.40;;;;;;;7.64;54.24;98785.09;8254748;28;20234;-77
2021/12/20 09:13:19;;;;;;;13.23;3.97;;;;;;;7.69;54.71;98786.72;8254832;28;20234;-77
2021/12/20 09:17:22;;;;;;;13.90;4.20;;;;;;;7.70;55.04;98793.59;8254594;28;20372;-77
2021/12/20 09:21:25;;;;;;;11.53;3.73;;;;;;;7.66;54.79;98791.94;8255009;28;20230;-77
2021/12/20 09:25:29;;;;;;;12.67;4.33;;;;;;;7.77;54.60;98790.84;8254797;28;20242;-77
2021/12/20 09:29:33;;;;;;;15.37;4.10;;;;;;;7.79;55.05;98793.41;8254439;28;20342;-77
2021/12/20 09:33:37;;;;;;;13.73;3.73;;;;;;;7.69;54.85;98802.19;8254449;28;20254;-77
2021/12/20 09:37:41;;;;;;;15.77;4.07;;;;;;;7.44;55.11;98798.34;8254624;28;20233;-77
2021/12/20 09:42:01;;;;;;;13.33;4.20;;;;;;;7.49;54.02;98808.56;8254251;28;20559;-77
2021/12/20 09:46:04;;;;;;;16.20;4.17;;;;;;;7.32;54.38;98797.72;8253755;28;20246;-77
2021/12/20 09:50:08;;;;;;;11.60;3.70;;;;;;;7.51;54.27;98798.25;8253456;28;20226;-77
2021/12/20 09:54:11;;;;;;;12.67;3.83;;;;;;;7.27;53.98;98795.22;8252615;28;20230;-76
2021/12/20 09:58:17;;;;;;;12.13;4.23;;;;;;;7.40;54.20;98795.84;8250804;28;20230;-77
2021/12/20 10:02:21;;;;;;;12.27;4.30;;;;;;;7.31;54.64;98807.19;8252498;28;20230;-77
2021/12/20 10:06:25;;;;;;;14.27;4.20;;;;;;;7.49;54.77;98813.72;8251412;28;20593;-77
2021/12/20 10:10:37;;;;;;;13.70;3.73;;;;;;;8.01;52.99;98807.56;8252469;28;20329;-76
2021/12/20 10:15:13;;;;;;;12.60;4.07;;;;;;;7.64;52.25;98810.03;8251037;28;20448;-77
2021/12/20 10:19:29;;;;;;;13.27;3.90;;;;;;;7.20;52.77;98802.22;8226862;28;20234;-77
2021/12/20 10:23:36;;;;;;;13.50;4.70;;;;;;;7.86;52.35;98801.84;8252958;28;20237;-77
2021/12/20 10:27:39;;;;;;;12.33;4.10;;;;;;;8.06;52.02;98806.63;8252904;28;20230;-76
2021/12/20 10:31:43;;;;;;;13.47;4.13;;;;;;;8.50;50.60;98800.53;8252780;28;20241;-77
2021/12/20 10:35:49;;;;;;;15.33;4.00;;;;;;;8.48;50.20;98804.03;8252545;28;20240;-77
2021/12/20 10:40:02;;;;;;;13.87;4.10;;;;;;;7.87;50.74;98801.00;8252196;28;20242;-77
2021/12/20 10:44:15;;;;;;;14.37;4.30;;;;;;;8.56;50.54;98791.78;8251718;28;20238;-76
2021/12/20 10:48:20;;;;;;;17.53;9.37;;;;;;;9.02;48.97;98785.50;8244632;28;20425;-77
2021/12/20 10:52:28;;;;;;;12.13;3.87;;;;;;;8.37;49.09;98797.31;8252522;28;20241;-77
2021/12/20 10:56:33;;;;;;;12.50;3.73;;;;;;;9.06;48.37;98787.13;8252128;28;20246;-77
2021/12/20 11:00:36;;;;;;;12.80;3.73;;;;;;;9.00;48.63;98797.63;8252094;28;20449;-77
2021/12/20 11:04:48;;;;;;;9.50;3.30;;;;;;;8.90;47.35;98798.75;8251292;28;20238;-77
2021/12/20 11:09:07;;;;;;;7.43;3.03;;;;;;;8.55;46.29;98797.84;8283286;28;20566;-77
2021/12/20 11:13:15;;;;;;;15.13;3.90;;;;;;;8.86;45.93;98797.13;8260480;28;20230;-77
2021/12/20 11:17:20;;;;;;;11.70;3.03;;;;;;;8.93;46.05;98804.69;8243078;28;20228;-76
2021/12/20 11:21:25;;;;;;;9.23;3.00;;;;;;;9.23;45.49;98796.19;8250546;28;20241;-72
2021/12/20 11:25:28;;;;;;;8.93;2.60;;;;;;;11.64;64.34;98794.06;8251004;28;20246;-72
2021/12/20 11:29:31;;;;;;;539.07;44.10;;;;;;;12.45;52.39;98778.97;8251425;28;20242;-70
2021/12/20 11:33:35;;;;;;;104.57;11.60;;;;;;;12.65;46.68;98781.66;8250725;28;20236;-72
2021/12/20 11:37:40;;;;;;;31.83;4.37;;;;;;;12.80;44.11;98774.16;8249188;28;20230;-75
2021/12/20 11:41:42;;;;;;;9.20;2.50;;;;;;;10.92;39.91;98778.38;8250314;28;20230;-74
2021/12/20 11:45:47;;;;;;;6.97;2.70;;;;;;;10.63;40.70;98768.97;8250448;28;20234;-75
2021/12/20 11:49:57;;;;;;;10.40;2.50;;;;;;;10.13;39.97;98769.59;8250596;28;20237;-75
2021/12/20 11:54:01;;;;;;;7.10;2.40;;;;;;;9.87;39.73;98776.34;8249885;28;20245;-74
2021/12/20 11:58:07;;;;;;;5.50;2.33;;;;;;;9.79;41.66;98773.16;8250248;28;20226;-74
2021/12/20 12:02:21;;;;;;;6.50;2.57;;;;;;;9.42;40.21;98766.38;8250349;28;20234;-75
2021/12/20 12:06:25;;;;;;;8.80;2.57;;;;;;;9.58;41.16;98761.66;8249435;28;20234;-74
2021/12/20 12:10:30;;;;;;;8.23;2.57;;;;;;;9.73;40.74;98766.41;8250238;28;20238;-73
2021/12/20 12:15:05;;;;;;;5.77;1.53;;;;;;;9.49;37.76;98760.16;8250050;28;20238;-74
2021/12/20 12:19:09;;;;;;;7.27;1.87;;;;;;;9.49;38.14;98770.50;8247652;28;20234;-74
2021/12/20 12:23:14;;;;;;;6.13;1.67;;;;;;;9.45;39.37;98766.31;8235916;28;20517;-74
2021/12/20 12:27:21;;;;;;;5.77;1.93;;;;;;;9.59;39.03;98760.75;8248578;28;20241;-75
2021/12/20 12:31:26;;;;;;;4.97;2.07;;;;;;;9.57;39.25;98763.38;8254464;28;20233;-77
2021/12/20 12:35:49;;;;;;;6.73;2.40;;;;;;;9.44;38.75;98756.84;8252578;28;20234;-77
2021/12/20 12:39:53;;;;;;;6.87;2.27;;;;;;;9.52;39.57;98752.34;8253322;28;20443;-77
2021/12/20 12:44:08;;;;;;;5.63;2.20;;;;;;;9.60;39.51;98752.13;8254153;28;20241;-77
2021/12/20 12:48:34;;;;;;;10.47;2.73;;;;;;;9.38;39.81;98757.03;8252730;28;20226;-76
2021/12/20 12:52:42;;;;;;;6.93;2.17;;;;;;;9.29;39.48;98752.09;8253586;28;20240;-76
2021/12/20 12:56:45;;;;;;;8.67;2.37;;;;;;;9.37;39.15;98756.19;8253899;28;20548;-76
2021/12/20 13:00:59;;;;;;;8.67;2.07;;;;;;;9.41;38.31;98751.78;8244672;28;20231;-76
2021/12/20 13:05:14;;;;;;;5.60;1.87;;;;;;;9.18;38.26;98750.66;8256300;28;20234;-76
2021/12/20 13:09:31;;;;;;;5.57;2.20;;;;;;;9.07;39.49;98749.25;8253164;28;20295;-76
2021/12/20 13:13:42;;;;;;;8.93;2.13;;;;;;;9.30;39.33;98748.63;8252530;28;20559;-76
2021/12/20 13:17:47;;;;;;;6.07;1.87;;;;;;;9.38;38.59;98757.03;8252258;28;20236;-76
2021/12/20 13:21:59;;;;;;;7.13;2.40;;;;;;;9.44;38.02;98743.06;8253046;28;20293;-77
2021/12/20 13:26:05;;;;;;;5.50;2.10;;;;;;;9.66;39.47;98751.09;8252021;28;20412;-77
2021/12/20 13:30:09;;;;;;;9.33;2.47;;;;;;;9.63;38.90;98751.19;8252918;28;20226;-76
2021/12/20 13:34:14;;;;;;;8.87;2.60;;;;;;;9.73;38.74;98739.69;8251955;28;20226;-76
2021/12/20 13:38:24;;;;;;;9.17;2.43;;;;;;;9.74;39.62;98744.81;8253069;28;20238;-76
2021/12/20 13:42:28;;;;;;;9.17;2.60;;;;;;;9.38;39.61;98736.34;8252616;28;20237;-77
2021/12/20 13:46:40;;;;;;;6.17;2.17;;;;;;;9.39;39.20;98733.72;8251910;28;20281;-77
2021/12/20 13:50:43;;;;;;;7.30;2.23;;;;;;;9.29;39.98;98736.59;8252271;28;20234;-76
2021/12/20 13:54:47;;;;;;;6.27;2.00;;;;;;;9.33;38.98;98738.22;8253150;28;20552;-77
2021/12/20 13:58:51;;;;;;;6.37;1.80;;;;;;;9.39;39.08;98740.63;8253107;28;20226;-76
2021/12/20 14:02:54;;;;;;;10.50;2.40;;;;;;;9.48;40.03;98744.69;8251156;28;20238;-77
2021/12/20 14:06:58;;;;;;;9.97;2.60;;;;;;;9.55;40.14;98741.88;8251990;28;20241;-78
2021/12/20 14:11:03;;;;;;;9.20;2.50;;;;;;;9.64;40.52;98743.38;8251404;28;20226;-78
2021/12/20 14:15:09;;;;;;;9.23;2.90;;;;;;;9.74;40.93;98749.13;8251770;28;20237;-78
2021/12/20 14:19:12;;;;;;;6.00;1.93;;;;;;;9.70;40.25;98742.38;8250589;28;20257;-81
2021/12/20 14:23:27;;;;;;;5.37;2.30;;;;;;;9.67;39.87;98740.72;8252425;28;20455;-77
2021/12/20 14:27:31;;;;;;;7.77;2.30;;;;;;;9.57;39.52;98747.88;8250090;28;20238;-84
2021/12/20 14:31:37;;;;;;;7.20;2.10;;;;;;;9.61;39.53;98748.63;8252450;28;20242;-67
2021/12/20 14:35:40;;;;;;;9.07;2.37;;;;;;;9.57;40.50;98755.63;8252573;28;20230;-67
2021/12/20 14:39:45;;;;;;;8.40;2.37;;;;;;;9.69;40.10;98753.59;8252413;28;20563;-67
2021/12/20 14:43:50;;;;;;;9.23;2.60;;;;;;;9.45;40.49;98750.81;8252033;28;20234;-67
2021/12/20 14:48:14;;;;;;;7.50;2.47;;;;;;;9.44;40.29;98751.69;8251839;28;20238;-67
2021/12/20 14:52:19;;;;;;;8.87;2.50;;;;;;;9.15;41.36;98755.88;8251016;28;20229;-66
2021/12/20 14:56:22;;;;;;;12.27;2.83;;;;;;;8.97;41.93;98749.47;8246213;28;20234;-66
2021/12/20 15:00:26;;;;;;;9.97;2.53;;;;;;;8.81;43.06;98753.31;8250117;28;20230;-67
2021/12/20 15:04:29;;;;;;;8.53;3.70;;;;;;;8.76;43.09;98757.75;8248783;28;20425;-67
2021/12/20 15:08:33;;;;;;;9.97;4.80;;;;;;;8.64;43.92;98770.94;8250453;28;20265;-67
2021/12/20 15:12:37;;;;;;;35.93;20.27;;;;;;;8.48;44.26;98758.41;8250290;28;20226;-66
2021/12/20 15:16:45;;;;;;;38.20;21.87;;;;;;;8.38;43.40;98756.91;8250079;28;20551;-67
2021/12/20 15:20:47;;;;;;;16.07;8.30;;;;;;;8.22;44.82;98761.53;8251106;28;20241;-68
2021/12/20 15:24:50;;;;;;;26.23;6.43;;;;;;;8.12;44.94;98768.63;8251320;28;20540;-65
2021/12/20 15:28:58;;;;;;;11.57;5.03;;;;;;;8.03;45.91;98768.81;8251305;28;20248;-67
2021/12/20 15:33:03;;;;;;;14.50;3.90;;;;;;;7.92;45.20;98769.06;8251037;28;20234;-66
2021/12/20 15:37:07;;;;;;;8.43;3.70;;;;;;;7.74;45.69;98762.53;8251234;28;20430;-67
2021/12/20 15:41:10;;;;;;;14.43;3.00;;;;;;;7.56;45.61;98755.19;8251251;28;20524;-67
2021/12/20 15:45:14;;;;;;;9.13;2.67;;;;;;;7.51;45.72;98768.16;8250608;28;20241;-66
2021/12/20 15:49:18;;;;;;;8.67;2.97;;;;;;;7.47;45.82;98766.50;8250397;28;20249;-66
2021/12/20 15:53:21;;;;;;;8.60;2.43;;;;;;;7.37;46.21;98768.41;8250747;28;20245;-68
2021/12/20 15:57:44;;;;;;;9.00;3.93;;;;;;;7.21;46.51;98767.00;8250494;28;20241;-66
2021/12/20 16:01:47;;;;;;;9.27;3.40;;;;;;;7.16;47.43;98761.94;8250022;28;20222;-66
2021/12/20 16:05:52;;;;;;;12.87;3.53;;;;;;;7.23;47.18;98778.13;8248578;28;20230;-67
2021/12/20 16:09:56;;;;;;;9.47;3.70;;;;;;;7.05;47.16;98771.56;8245137;28;20283;-65
2021/12/20 16:13:58;;;;;;;19.60;7.77;;;;;;;7.02;47.53;98774.19;8250016;28;20234;-66
2021/12/20 16:18:03;;;;;;;14.10;8.47;;;;;;;6.92;47.52;98781.22;8248570;28;20230;-66
2021/12/20 16:22:07;;;;;;;13.50;6.60;;;;;;;6.87;47.81;98785.59;8248836;28;20234;-66
2021/12/20 16:26:10;;;;;;;12.57;7.03;;;;;;;6.74;48.09;98791.81;8249201;28;20521;-66
2021/12/20 16:30:14;;;;;;;9.53;3.73;;;;;;;6.71;47.79;98789.31;8267977;28;20277;-66
2021/12/20 16:34:18;;;;;;;11.20;3.70;;;;;;;6.71;47.86;98789.31;8248768;28;20230;-66
2021/12/20 16:38:22;;;;;;;15.17;3.90;;;;;;;6.76;48.35;98788.34;8248917;28;20237;-66
2021/12/20 16:42:25;;;;;;;11.63;6.20;;;;;;;6.59;48.31;98786.03;8249285;28;20565;-67
2021/12/20 16:46:30;;;;;;;18.17;14.50;;;;;;;6.60;48.06;98784.31;8252729;28;20241;-66
2021/12/20 16:50:33;;;;;;;27.30;22.17;;;;;;;6.60;48.22;98784.31;8249786;28;20248;-67
2021/12/20 16:54:37;;;;;;;22.97;16.40;;;;;;;6.51;48.35;98777.59;8249630;28;20230;-66
2021/12/20 16:58:40;;;;;;;19.73;14.50;;;;;;;6.44;48.56;98787.09;8249231;28;20237;-67
2021/12/20 17:02:49;;;;;;;12.57;8.10;;;;;;;6.54;48.12;98789.56;8249453;28;20536;-66
2021/12/20 17:06:53;;;;;;;12.40;8.50;;;;;;;6.34;48.69;98790.69;8249343;28;20417;-67
2021/12/20 17:10:57;;;;;;;7.97;4.57;;;;;;;6.25;48.80;98790.81;8248704;28;20234;-66
2021/12/20 17:15:00;;;;;;;69.80;37.20;;;;;;;6.20;48.37;98797.75;8250934;28;20238;-67
2021/12/20 17:19:04;;;;;;;34.23;16.30;;;;;;;6.23;50.62;98793.41;8253375;28;20547;-66
2021/12/20 17:23:07;;;;;;;32.33;18.30;;;;;;;6.22;49.61;98796.00;8253625;28;20420;-66
2021/12/20 17:27:12;;;;;;;24.67;14.80;;;;;;;6.11;49.69;98805.56;8253821;28;20238;-66
2021/12/20 17:31:14;;;;;;;22.00;14.07;;;;;;;6.15;49.61;98802.97;8258988;28;20467;-66
2021/12/20 17:35:18;;;;;;;24.70;11.83;;;;;;;6.04;49.91;98802.25;8257936;28;20237;-66
2021/12/20 17:39:21;;;;;;;41.23;23.13;;;;;;;5.97;49.81;98808.31;8271619;28;20237;-66
2021/12/20 17:43:27;;;;;;;35.20;22.40;;;;;;;6.09;49.43;98810.72;8258596;28;20234;-67
2021/12/20 17:47:29;;;;;;;133.13;73.00;;;;;;;6.02;49.31;98814.28;8257027;28;20265;-66
2021/12/20 17:51:33;;;;;;;53.53;31.50;;;;;;;5.70;49.39;98815.47;8254133;28;20398;-66
2021/12/20 17:55:36;;;;;;;36.77;21.27;;;;;;;5.85;49.89;98814.44;8254124;28;20464;-67
2021/12/20 17:59:40;;;;;;;25.60;16.30;;;;;;;5.92;49.53;98816.06;8253704;28;20237;-67
2021/12/20 18:04:00;;;;;;;17.93;11.33;;;;;;;5.90;49.68;98816.94;8263339;28;20552;-67
2021/12/20 18:08:05;;;;;;;20.00;12.27;;;;;;;5.87;49.85;98828.13;8276301;28;20713;-66
2021/12/20 18:12:10;;;;;;;17.07;10.57;;;;;;;5.88;49.75;98816.97;8252981;28;20253;-67
2021/12/20 18:16:16;;;;;;;16.43;10.23;;;;;;;5.76;49.61;98827.41;8252723;28;20230;-67
2021/12/20 18:20:23;;;;;;;20.37;9.90;;;;;;;5.70;49.97;98819.75;8253251;28;20541;-67
2021/12/20 18:24:26;;;;;;;18.83;10.30;;;;;;;5.73;49.83;98827.41;8253011;28;20238;-66
2021/12/20 18:28:29;;;;;;;16.40;11.80;;;;;;;5.73;49.65;98828.28;8251711;28;20238;-67
2021/12/20 18:32:33;;;;;;;21.27;12.57;;;;;;;5.62;50.16;98828.41;8252616;28;20257;-66
2021/12/20 18:36:36;;;;;;;17.13;11.50;;;;;;;5.66;49.87;98824.91;8251760;28;20249;-66
2021/12/20 18:40:40;;;;;;;16.30;9.30;;;;;;;5.66;49.76;98830.06;8251871;28;20234;-67
2021/12/20 18:44:43;;;;;;;14.00;8.03;;;;;;;5.70;49.85;98822.31;8252686;28;20234;-66
2021/12/20 18:48:49;;;;;;;12.23;7.70;;;;;;;5.50;50.10;98825.94;8252037;28;20234;-66
2021/12/20 18:52:52;;;;;;;14.43;9.37;;;;;;;5.52;50.09;98820.78;8252197;28;20537;-66
2021/12/20 18:57:03;;;;;;;19.67;12.47;;;;;;;5.59;50.31;98830.97;8251951;28;20233;-66
2021/12/20 19:01:06;;;;;;;18.67;12.23;;;;;;;5.65;49.81;98836.09;8251430;28;20238;-66
2021/12/20 19:05:11;;;;;;;17.93;10.90;;;;;;;5.51;50.21;98831.94;8251577;28;20264;-66
2021/12/20 19:09:14;;;;;;;18.50;10.33;;;;;;;5.54;50.28;98837.03;8242897;28;20433;-66
2021/12/20 19:13:19;;;;;;;22.77;12.37;;;;;;;5.51;50.17;98837.09;8267621;28;20240;-66
2021/12/20 19:17:22;;;;;;;20.93;10.50;;;;;;;5.49;50.60;98832.81;8254279;28;20238;-66
2021/12/20 19:21:27;;;;;;;16.37;11.60;;;;;;;5.43;50.18;98824.31;8251185;28;20237;-66
2021/12/20 19:25:30;;;;;;;17.30;11.13;;;;;;;5.16;50.69;98821.16;8251223;28;20238;-66
2021/12/20 19:29:35;;;;;;;19.63;11.37;;;;;;;5.17;50.38;98817.69;8251146;28;20238;-66